Hawaii Volcanoes National Park, HI

10:21 AM HST on September 22, 2014 (GMT -1000)
Bradshaw Army Air Field | Change Station
CLOSE
Current Station
Airport
Location: Bradshaw AFB,
Elevation: 6191 ft
Nearby Weather Stations

Elev 6191 ft 19.76 °N, 155.55 °W | Updated 25 minutes ago

Clear
Clear
68 °F
Feels Like 68 °F
N
8
Wind Variable Wind from SSE

Today
High -- | Low -- °F
--% Chance of Precip.
Yesterday
High -- | Low -- °F
Precip. -- in
6:10 AM 6:17 PM
Waning Crescent, 2% visible
Pressure 30.04 in
Visibility 12.0 miles
Clouds Clear
Dew Point 50 °F
Humidity 54%
Rainfall 0.00 in
Snow Depth Not available.
UV 8 out of 12
Pollen Not available.
Air Quality Not available.
Flu Activity Not available.
METAR PHSF 221956Z AUTO 15007KT 12SM CLR 20/10 A3040 RMK AO2 SLP173 T02000103

More Conditions Fewer Conditions

Pressure 30.04 in
Visibility 12.0 miles
Clouds Clear
Dew Point 50 °F
Humidity 54%
Rainfall 0.00 in
Snow Depth Not available.
UV 8 out of 12
Pollen Not available.
Air Quality Not available.
Flu Activity Not available.
METAR PHSF 221956Z AUTO 15007KT 12SM CLR 20/10 A3040 RMK AO2 SLP173 T02000103

More Conditions Fewer Conditions

10-Day Weather Forecast

Almanac

Astronomy

Sep. 22, 2014 Rise Set
Actual Time 6:10 AM HST 6:17 PM HST
Civil Twilight 5:48 AM HST 6:39 PM HST
Nautical Twilight 5:22 AM HST 7:04 PM HST
Astronomical Twilight 4:57 AM HST 7:30 PM HST
Moon 4:56 AM HST 5:26 PM HST
Length of Visible Light 12h 50m
Length of Day
12h 07m
Tomorrow will be 1m 6s shorter.
Waning Crescent, 2% of the Moon is Illuminated
Today
Waning Crescent
Sep 24
New
Oct 1
First Quarter
Oct 8
Full
Oct 15
Last Quarter

Today's Extremes

State Highs State Lows

Community

WunderPhotos

Upload Photos

1,755,523 photos uploaded!

WunderBlogs® & News

Nearby

Snow Depth

Station Depth Elevation
No new snow has been reported.

Earthquake Activity

City Distance Mag. Time & Date
No recent earthquake activity has been reported nearby.
Minimum magnitude displayed is 2.5.

Coastal Water Temperatures

Place Temperature
No Stations Reporting

Nearby Weather Stations